BRHD weather

Brooms Head Heliport
Brooms Head, New South Wales, Australia

Public forecast

Using degrees Celsius for public forecast. Weather courtesy of forecast.io.

METAR (pilot weather report)

Closest report is Grafton Airport, 18.2 nm (33.8 km) WSW. Retrieved 2019/04/19 13:00 UTC (56 minutes ago):

YGFN 191300Z AUTO 20005KT 9999 // SCT025 SCT076 19/19 Q1025

TAF (pilot weather forecast)

Closest forecast is Gold Coast Airport, 87.1 nm (161.3 km) N. Retrieved 2019/04/19 12:00 UTC (2 hours ago):

TAF YBCG 191103Z 1912/2012 19010KT 9999 -SHRA SCT015 BKN025 FM200000 13014KT 9999 -SHRA FEW015 SCT025 BKN040 INTER 1912/2012 3000 SHRA BKN012